createdAt,value
2023-11-02T00:01:36.510Z,8.65
2023-11-02T00:04:03.728Z,8.75
2023-11-02T00:06:39.112Z,8.88
2023-11-02T00:09:07.027Z,9.24
2023-11-02T00:11:56.388Z,8.66
2023-11-02T00:14:27.122Z,8.82
2023-11-02T00:16:59.331Z,8.75
2023-11-02T00:19:31.295Z,8.71
2023-11-02T00:22:06.397Z,8.53
2023-11-02T00:24:36.761Z,8.12
2023-11-02T00:27:06.455Z,8.49
2023-11-02T00:29:34.061Z,8.37
2023-11-02T00:32:02.242Z,8.04
2023-11-02T00:34:30.162Z,8.00
2023-11-02T00:36:59.399Z,7.74
2023-11-02T00:39:27.963Z,8.40
2023-11-02T00:41:56.376Z,8.41
2023-11-02T00:44:25.159Z,7.95
2023-11-02T00:46:52.687Z,8.24
2023-11-02T00:49:30.740Z,8.23
2023-11-02T00:52:00.028Z,8.27
2023-11-02T00:54:42.322Z,8.93
2023-11-02T00:57:12.953Z,8.58
2023-11-02T00:59:40.881Z,8.31
2023-11-02T01:02:11.247Z,8.83
2023-11-02T01:04:43.851Z,9.05
2023-11-02T01:07:15.983Z,9.06
2023-11-02T01:09:49.378Z,9.02
2023-11-02T01:12:33.106Z,8.67
2023-11-02T01:15:02.542Z,8.68
2023-11-02T01:17:33.420Z,9.25
2023-11-02T01:20:11.979Z,8.79
2023-11-02T01:22:51.558Z,9.43
2023-11-02T01:25:19.704Z,9.30
2023-11-02T01:27:52.747Z,8.70
2023-11-02T01:30:19.870Z,9.25
2023-11-02T01:32:47.504Z,8.54
2023-11-02T01:35:47.115Z,9.15
2023-11-02T01:38:18.014Z,8.38
2023-11-02T01:41:01.173Z,8.52
2023-11-02T01:43:34.930Z,8.67
2023-11-02T01:46:05.694Z,8.74
2023-11-02T01:48:48.751Z,8.49
2023-11-02T01:51:33.652Z,8.96
2023-11-02T01:54:20.604Z,9.15
2023-11-02T01:57:05.135Z,9.27
2023-11-02T02:03:09.693Z,8.90
2023-11-02T02:05:41.435Z,8.58
2023-11-02T02:08:20.448Z,8.70
2023-11-02T02:10:53.658Z,9.51
2023-11-02T02:13:55.742Z,9.09
2023-11-02T02:16:29.172Z,9.47
2023-11-02T02:19:15.690Z,9.20
2023-11-02T02:21:56.371Z,8.93
2023-11-02T02:24:32.195Z,9.06
2023-11-02T02:27:37.191Z,9.61
2023-11-02T02:30:30.387Z,8.81
2023-11-02T02:33:28.525Z,9.51
2023-11-02T02:36:14.834Z,9.60
2023-11-02T02:38:48.364Z,9.24
2023-11-02T02:41:20.435Z,9.18
2023-11-02T02:43:52.540Z,9.07
2023-11-02T02:46:24.409Z,9.03
2023-11-02T02:48:52.261Z,9.15
2023-11-02T02:51:20.409Z,9.39
2023-11-02T02:53:49.183Z,9.49
2023-11-02T02:56:21.332Z,9.55
2023-11-02T02:59:05.206Z,9.57
2023-11-02T03:01:37.939Z,9.78
2023-11-02T03:04:18.788Z,9.87
2023-11-02T03:06:52.507Z,9.66
2023-11-02T03:09:22.890Z,9.80
2023-11-02T03:11:54.941Z,9.47
2023-11-02T03:14:23.706Z,9.50
2023-11-02T03:16:59.920Z,10.03
2023-11-02T03:19:48.236Z,9.34
2023-11-02T03:22:20.423Z,9.66
2023-11-02T03:25:06.027Z,9.85
2023-11-02T03:27:49.071Z,9.78
2023-11-02T03:30:27.363Z,9.49
2023-11-02T03:33:04.736Z,9.58
2023-11-02T03:35:42.698Z,9.18
2023-11-02T03:38:50.327Z,9.50
2023-11-02T03:41:32.039Z,9.47
2023-11-02T03:44:20.226Z,9.43
2023-11-02T03:46:47.358Z,9.43
2023-11-02T03:49:41.544Z,9.13
2023-11-02T03:52:16.465Z,9.25
2023-11-02T03:54:53.236Z,8.69
2023-11-02T03:57:27.721Z,8.40
2023-11-02T04:00:10.221Z,9.07
2023-11-02T04:02:42.949Z,9.06
2023-11-02T04:05:24.380Z,9.01
2023-11-02T04:08:08.684Z,9.27
2023-11-02T04:10:49.886Z,9.35
2023-11-02T04:13:30.794Z,8.97
2023-11-02T04:16:02.207Z,9.00
2023-11-02T04:18:29.461Z,9.38
2023-11-02T04:20:59.922Z,8.96
2023-11-02T04:23:28.194Z,9.65
2023-11-02T04:25:57.136Z,9.47
2023-11-02T04:28:24.541Z,9.15
2023-11-02T04:30:51.996Z,9.83
2023-11-02T04:33:20.049Z,9.70
2023-11-02T04:35:47.298Z,9.40
2023-11-02T04:38:15.085Z,9.61
2023-11-02T04:40:42.415Z,9.63
2023-11-02T04:43:09.520Z,9.38
2023-11-02T04:45:38.667Z,9.05
2023-11-02T04:48:06.326Z,9.07
2023-11-02T04:50:33.884Z,9.54
2023-11-02T04:53:01.974Z,9.25
2023-11-02T04:55:29.191Z,8.73
2023-11-02T04:57:57.351Z,8.70
2023-11-02T05:00:24.688Z,8.75
2023-11-02T05:02:51.742Z,8.96
2023-11-02T05:05:20.441Z,8.87
2023-11-02T05:07:50.613Z,8.63
2023-11-02T05:10:17.842Z,8.49
2023-11-02T05:12:44.980Z,8.49
2023-11-02T05:15:13.215Z,8.95
2023-11-02T05:17:40.574Z,8.46
2023-11-02T05:20:08.184Z,8.36
2023-11-02T05:22:35.430Z,8.32
2023-11-02T05:25:02.764Z,8.46
2023-11-02T05:27:31.089Z,8.23
2023-11-02T05:29:57.941Z,8.54
2023-11-02T05:32:25.047Z,8.59
2023-11-02T05:34:52.050Z,8.37
2023-11-02T05:37:19.219Z,8.59
2023-11-02T05:39:46.274Z,8.32
2023-11-02T05:42:13.276Z,9.01
2023-11-02T05:44:40.605Z,9.01
2023-11-02T05:47:07.544Z,8.18
2023-11-02T05:49:34.409Z,8.75
2023-11-02T05:52:03.064Z,8.85
2023-11-02T05:54:29.854Z,8.74
2023-11-02T05:56:57.690Z,8.35
2023-11-02T05:59:25.890Z,8.96
2023-11-02T06:01:53.056Z,8.58
2023-11-02T06:04:19.880Z,8.86
2023-11-02T06:06:48.296Z,8.99
2023-11-02T06:09:15.310Z,9.15
2023-11-02T06:11:43.127Z,9.54
2023-11-02T06:14:12.528Z,9.32
2023-11-02T06:16:40.176Z,9.45
2023-11-02T06:19:07.366Z,9.73
2023-11-02T06:21:34.947Z,9.14
2023-11-02T06:24:02.181Z,9.54
2023-11-02T06:26:29.196Z,9.72
2023-11-02T06:28:56.287Z,9.71
2023-11-02T06:31:23.567Z,9.91
2023-11-02T06:33:51.714Z,10.12
2023-11-02T06:36:18.671Z,9.72
2023-11-02T06:38:45.438Z,10.18
2023-11-02T06:41:13.248Z,10.45
2023-11-02T06:43:43.616Z,10.14
2023-11-02T06:46:10.487Z,10.67
2023-11-02T06:48:37.519Z,10.90
2023-11-02T06:51:04.531Z,10.94
2023-11-02T06:53:31.942Z,11.01
2023-11-02T06:55:59.364Z,10.87
2023-11-02T06:58:29.002Z,11.08
2023-11-02T07:00:58.272Z,11.38
2023-11-02T07:03:25.519Z,11.51
2023-11-02T07:05:53.335Z,11.43
2023-11-02T07:08:20.076Z,11.34
2023-11-02T07:10:46.761Z,11.48
2023-11-02T07:13:17.000Z,11.37
2023-11-02T07:15:44.058Z,11.27
2023-11-02T07:18:11.030Z,11.31
2023-11-02T07:20:40.039Z,11.19
2023-11-02T07:23:06.949Z,11.14
2023-11-02T07:25:34.873Z,10.68
2023-11-02T07:28:02.042Z,10.39
2023-11-02T07:30:29.062Z,10.89
2023-11-02T07:32:56.385Z,11.16
2023-11-02T07:35:24.262Z,10.83
2023-11-02T07:37:51.441Z,11.24
2023-11-02T07:40:20.739Z,11.11
2023-11-02T07:42:48.108Z,11.28
2023-11-02T07:45:15.479Z,11.51
2023-11-02T07:47:43.743Z,11.22
2023-11-02T07:50:11.915Z,10.77
2023-11-02T07:52:42.725Z,11.34
2023-11-02T07:55:11.417Z,11.51
2023-11-02T07:57:40.986Z,11.83
2023-11-02T08:00:09.403Z,11.68
2023-11-02T08:02:36.290Z,11.35
2023-11-02T08:05:04.755Z,11.67
2023-11-02T08:07:31.842Z,11.85
2023-11-02T08:09:58.929Z,12.25
2023-11-02T08:12:27.081Z,11.85
2023-11-02T08:14:53.991Z,12.40
2023-11-02T08:17:26.562Z,12.53
2023-11-02T08:19:54.141Z,12.51
2023-11-02T08:22:22.385Z,12.00
2023-11-02T08:24:49.309Z,12.48
2023-11-02T08:27:19.113Z,12.08
2023-11-02T08:29:48.426Z,12.93
2023-11-02T08:32:15.557Z,12.58
2023-11-02T08:34:43.155Z,12.42
2023-11-02T08:37:12.722Z,12.88
2023-11-02T08:39:42.563Z,12.81
2023-11-02T08:42:10.392Z,13.34
2023-11-02T08:44:44.448Z,13.49
2023-11-02T08:47:13.090Z,13.57
2023-11-02T08:49:41.830Z,13.65
2023-11-02T08:52:08.521Z,13.36
2023-11-02T08:54:35.304Z,13.73
2023-11-02T08:57:02.503Z,13.81
2023-11-02T08:59:29.198Z,14.08
2023-11-02T09:01:57.363Z,14.29
2023-11-02T09:04:25.639Z,13.88
2023-11-02T09:06:53.248Z,13.91
2023-11-02T09:09:19.974Z,13.83
2023-11-02T09:11:46.643Z,13.94
2023-11-02T09:14:13.499Z,13.94
2023-11-02T09:16:40.669Z,14.01
2023-11-02T09:19:07.868Z,14.34
2023-11-02T09:21:38.856Z,14.13
2023-11-02T09:24:06.119Z,14.37
2023-11-02T09:26:34.058Z,14.58
2023-11-02T09:29:01.196Z,14.89
2023-11-02T09:31:31.357Z,14.99
2023-11-02T09:33:59.320Z,15.09
2023-11-02T09:36:27.162Z,15.30
2023-11-02T09:38:54.295Z,15.35
2023-11-02T09:41:21.292Z,15.39
2023-11-02T09:43:48.703Z,15.87
2023-11-02T09:46:16.181Z,16.34
2023-11-02T09:48:43.546Z,16.10
2023-11-02T09:51:12.055Z,16.77
2023-11-02T09:53:39.613Z,16.63
2023-11-02T09:56:07.280Z,16.41
2023-11-02T09:58:34.738Z,16.53
2023-11-02T10:01:01.904Z,16.64
2023-11-02T10:03:28.934Z,16.97
2023-11-02T10:05:58.636Z,17.63
2023-11-02T10:08:25.609Z,17.94
2023-11-02T10:11:12.520Z,17.35
2023-11-02T10:13:39.614Z,17.61
2023-11-02T10:16:06.814Z,17.35
2023-11-02T10:18:33.926Z,17.12
2023-11-02T10:21:05.889Z,17.14
2023-11-02T10:23:52.694Z,17.48
2023-11-02T10:26:20.105Z,17.70
2023-11-02T10:28:47.856Z,17.74
2023-11-02T10:31:31.720Z,17.57
2023-11-02T10:34:01.287Z,17.24
2023-11-02T10:36:28.116Z,16.58
2023-11-02T10:38:56.674Z,16.42
2023-11-02T10:41:23.918Z,15.96
2023-11-02T10:43:52.184Z,15.49
2023-11-02T10:46:21.832Z,15.79
2023-11-02T10:48:53.849Z,15.41
2023-11-02T10:51:25.288Z,15.20
2023-11-02T10:54:24.568Z,15.29
2023-11-02T10:57:03.421Z,14.94
2023-11-02T10:59:31.294Z,14.91
2023-11-02T11:01:58.226Z,14.73
2023-11-02T11:04:25.346Z,15.00
2023-11-02T11:06:56.940Z,14.71
2023-11-02T11:09:25.069Z,14.82
2023-11-02T11:11:52.311Z,14.96
2023-11-02T11:14:20.319Z,14.90
2023-11-02T11:16:49.033Z,14.99
2023-11-02T11:19:15.946Z,15.09
2023-11-02T11:21:44.065Z,14.96
2023-11-02T11:24:18.237Z,15.30
2023-11-02T11:26:51.550Z,15.32
2023-11-02T11:29:41.583Z,15.48
2023-11-02T11:32:10.121Z,15.43
2023-11-02T11:34:55.741Z,16.00
2023-11-02T11:37:35.626Z,16.50
2023-11-02T11:40:07.855Z,16.84
2023-11-02T11:42:53.340Z,17.09
2023-11-02T11:45:33.158Z,17.07
2023-11-02T11:48:02.671Z,17.18
2023-11-02T11:50:31.372Z,16.94
2023-11-02T11:53:21.775Z,16.93
2023-11-02T11:55:51.158Z,16.93
2023-11-02T11:58:20.813Z,17.34
2023-11-02T12:00:50.376Z,17.28
2023-11-02T12:03:40.578Z,17.40
2023-11-02T12:06:12.564Z,17.45
2023-11-02T12:08:49.437Z,17.54
2023-11-02T12:11:26.836Z,17.06
2023-11-02T12:13:58.755Z,16.79
2023-11-02T12:16:32.516Z,17.22
2023-11-02T12:18:59.977Z,17.39
2023-11-02T12:21:27.076Z,16.82
2023-11-02T12:23:55.794Z,16.09
2023-11-02T12:26:25.702Z,16.06
2023-11-02T12:28:59.648Z,16.26
2023-11-02T12:31:32.875Z,16.20
2023-11-02T12:34:05.575Z,16.48
2023-11-02T12:36:32.761Z,16.56
2023-11-02T12:38:59.973Z,16.60
2023-11-02T12:41:33.396Z,16.41
2023-11-02T12:44:07.354Z,16.36
2023-11-02T12:46:36.014Z,16.72
2023-11-02T12:49:27.238Z,16.95
2023-11-02T12:51:54.559Z,17.26
2023-11-02T12:54:23.251Z,17.30
2023-11-02T12:56:51.714Z,17.36
2023-11-02T12:59:18.433Z,17.26
2023-11-02T13:01:49.786Z,17.27
2023-11-02T13:04:17.529Z,17.21
2023-11-02T13:06:45.318Z,17.03
2023-11-02T13:09:14.543Z,17.11
2023-11-02T13:11:45.062Z,17.19
2023-11-02T13:14:20.400Z,16.92
2023-11-02T13:16:58.954Z,16.94
2023-11-02T13:19:26.554Z,17.27
2023-11-02T13:21:53.810Z,17.29
2023-11-02T13:24:21.231Z,17.09
2023-11-02T13:26:48.807Z,16.58
2023-11-02T13:29:18.141Z,16.58
2023-11-02T13:31:47.075Z,16.41
2023-11-02T13:34:14.521Z,16.12
2023-11-02T13:36:42.462Z,16.11
2023-11-02T13:39:12.940Z,16.22
2023-11-02T13:41:42.410Z,16.38
2023-11-02T13:44:09.485Z,16.25
2023-11-02T13:46:36.377Z,16.54
2023-11-02T13:49:04.286Z,16.67
2023-11-02T13:51:31.891Z,16.92
2023-11-02T13:53:58.968Z,17.02
2023-11-02T13:56:25.755Z,17.19
2023-11-02T13:58:53.466Z,17.33
2023-11-02T14:01:20.190Z,17.42
2023-11-02T14:03:47.479Z,17.21
2023-11-02T14:06:16.090Z,17.24
2023-11-02T14:08:44.115Z,17.14
2023-11-02T14:11:11.938Z,17.22
2023-11-02T14:13:38.965Z,17.09
2023-11-02T14:16:06.708Z,16.71
2023-11-02T14:18:33.680Z,16.77
2023-11-02T14:21:00.684Z,17.05
2023-11-02T14:23:27.889Z,17.28
2023-11-02T14:25:56.466Z,17.40
2023-11-02T14:28:23.484Z,17.43
2023-11-02T14:30:51.424Z,17.41
2023-11-02T14:33:18.388Z,17.02
2023-11-02T14:35:45.160Z,16.97
2023-11-02T14:38:12.456Z,16.66
2023-11-02T14:40:39.572Z,16.45
2023-11-02T14:43:06.366Z,16.37
2023-11-02T14:45:33.348Z,16.34
2023-11-02T14:48:00.231Z,16.09
2023-11-02T14:50:27.049Z,16.02
2023-11-02T14:52:53.832Z,15.85
2023-11-02T14:55:21.013Z,15.61
2023-11-02T14:57:47.910Z,15.50
2023-11-02T15:00:16.411Z,15.29
2023-11-02T15:02:43.638Z,15.46
2023-11-02T15:05:11.405Z,15.31
2023-11-02T15:07:38.589Z,15.23
2023-11-02T15:10:06.455Z,15.07
2023-11-02T15:12:34.196Z,14.97
2023-11-02T15:15:04.576Z,14.92
2023-11-02T15:17:31.557Z,14.77
2023-11-02T15:20:05.997Z,14.66
2023-11-02T15:22:35.922Z,14.65
2023-11-02T15:25:05.006Z,14.61
2023-11-02T15:27:32.589Z,14.65
2023-11-02T15:30:00.617Z,14.69
2023-11-02T15:32:28.042Z,14.40
2023-11-02T15:34:57.895Z,14.58
2023-11-02T15:37:28.270Z,14.75
2023-11-02T15:39:56.016Z,14.63
2023-11-02T15:42:22.866Z,14.68
2023-11-02T15:44:50.422Z,14.46
2023-11-02T15:47:23.313Z,14.99
2023-11-02T15:49:51.025Z,14.74
2023-11-02T15:52:21.424Z,14.96
2023-11-02T15:54:50.441Z,14.82
2023-11-02T15:57:17.963Z,14.89
2023-11-02T15:59:45.935Z,14.73
2023-11-02T16:02:14.482Z,15.05
2023-11-02T16:04:42.519Z,14.98
2023-11-02T16:07:09.783Z,15.00
2023-11-02T16:09:36.724Z,14.77
2023-11-02T16:12:10.384Z,14.98
2023-11-02T16:14:37.933Z,14.99
2023-11-02T16:17:05.052Z,14.87
2023-11-02T16:19:34.527Z,14.54
2023-11-02T16:22:01.621Z,14.70
2023-11-02T16:24:28.867Z,14.69
2023-11-02T16:26:56.064Z,14.61
2023-11-02T16:29:23.906Z,14.40
2023-11-02T16:31:51.118Z,14.32
2023-11-02T16:34:30.432Z,14.22
2023-11-02T16:37:03.741Z,14.26
2023-11-02T16:39:31.714Z,14.19
2023-11-02T16:42:00.161Z,14.25
2023-11-02T16:44:28.509Z,14.14
2023-11-02T16:46:56.802Z,13.99
2023-11-02T16:49:25.355Z,13.90
2023-11-02T16:51:53.452Z,13.81
2023-11-02T16:54:23.586Z,13.80
2023-11-02T16:56:50.303Z,13.53
2023-11-02T16:59:18.248Z,13.68
2023-11-02T17:01:45.286Z,13.16
2023-11-02T17:04:12.258Z,13.26
2023-11-02T17:06:39.067Z,13.31
2023-11-02T17:09:10.311Z,13.07
2023-11-02T17:11:38.442Z,12.95
2023-11-02T17:14:05.794Z,13.11
2023-11-02T17:16:32.675Z,13.02
2023-11-02T17:18:59.905Z,12.77
2023-11-02T17:21:29.629Z,12.60
2023-11-02T17:23:57.499Z,12.54
2023-11-02T17:26:27.910Z,12.43
2023-11-02T17:28:54.899Z,12.29
2023-11-02T17:31:21.949Z,12.40
2023-11-02T17:33:49.133Z,12.46
2023-11-02T17:36:15.963Z,12.47
2023-11-02T17:38:42.641Z,12.50
2023-11-02T17:41:09.372Z,12.59
2023-11-02T17:43:38.181Z,12.58
2023-11-02T17:46:05.547Z,12.42
2023-11-02T17:48:32.661Z,12.25
2023-11-02T17:51:02.152Z,12.20
2023-11-02T17:53:29.478Z,12.00
2023-11-02T17:55:56.494Z,12.01
2023-11-02T17:58:25.773Z,12.12
2023-11-02T18:00:54.273Z,12.12
2023-11-02T18:03:21.088Z,12.11
2023-11-02T18:05:48.270Z,12.11
2023-11-02T18:08:15.597Z,11.81
2023-11-02T18:10:43.251Z,11.86
2023-11-02T18:13:10.030Z,11.60
2023-11-02T18:15:37.568Z,11.67
2023-11-02T18:18:04.724Z,11.53
2023-11-02T18:20:33.047Z,11.47
2023-11-02T18:23:00.073Z,11.46
2023-11-02T18:25:27.230Z,11.30
2023-11-02T18:27:55.118Z,11.20
2023-11-02T18:30:21.801Z,11.04
2023-11-02T18:32:48.632Z,11.04
2023-11-02T18:35:18.157Z,10.93
2023-11-02T18:37:45.213Z,10.93
2023-11-02T18:40:12.657Z,10.89
2023-11-02T18:42:39.649Z,10.86
2023-11-02T18:45:06.951Z,10.90
2023-11-02T18:47:35.206Z,10.82
2023-11-02T18:50:02.539Z,10.95
2023-11-02T18:52:29.403Z,10.78
2023-11-02T18:54:58.293Z,10.88
2023-11-02T18:57:26.528Z,10.86
2023-11-02T18:59:53.825Z,10.81
2023-11-02T19:02:21.169Z,10.87
2023-11-02T19:04:48.971Z,10.81
2023-11-02T19:07:16.472Z,10.85
2023-11-02T19:09:48.068Z,10.94
2023-11-02T19:12:18.174Z,10.87
2023-11-02T19:14:45.361Z,10.97
2023-11-02T19:17:14.294Z,11.00
2023-11-02T19:19:42.706Z,10.99
2023-11-02T19:22:09.630Z,10.69
2023-11-02T19:24:36.811Z,10.73
2023-11-02T19:27:04.492Z,10.63
2023-11-02T19:29:31.690Z,10.55
2023-11-02T19:31:58.785Z,10.55
2023-11-02T19:34:28.748Z,10.39
2023-11-02T19:36:55.896Z,10.36
2023-11-02T19:39:23.151Z,10.33
2023-11-02T19:41:50.171Z,10.30
2023-11-02T19:44:17.710Z,10.21
2023-11-02T19:46:47.803Z,10.10
2023-11-02T19:49:15.929Z,10.00
2023-11-02T19:51:43.684Z,9.87
2023-11-02T19:54:11.770Z,9.75
2023-11-02T19:56:44.198Z,9.78
2023-11-02T19:59:12.362Z,9.72
2023-11-02T20:01:41.868Z,9.70
2023-11-02T20:04:12.043Z,9.76
2023-11-02T20:06:39.914Z,9.70
2023-11-02T20:09:09.483Z,9.55
2023-11-02T20:11:36.620Z,9.50
2023-11-02T20:14:03.472Z,9.60
2023-11-02T20:16:30.369Z,9.57
2023-11-02T20:18:57.351Z,9.55
2023-11-02T20:21:25.868Z,9.60
2023-11-02T20:23:55.725Z,9.49
2023-11-02T20:26:22.742Z,9.56
2023-11-02T20:28:49.819Z,9.55
2023-11-02T20:31:16.889Z,9.65
2023-11-02T20:33:44.310Z,9.61
2023-11-02T20:36:11.122Z,9.62
2023-11-02T20:38:38.229Z,9.63
2023-11-02T20:41:06.156Z,9.58
2023-11-02T20:43:33.534Z,9.69
2023-11-02T20:46:02.597Z,9.67
2023-11-02T20:48:34.731Z,9.76
2023-11-02T20:51:01.854Z,9.66
2023-11-02T20:53:28.908Z,9.55
2023-11-02T20:55:58.335Z,9.56
2023-11-02T20:58:26.204Z,9.68
2023-11-02T21:00:54.840Z,9.56
2023-11-02T21:03:23.019Z,9.55
2023-11-02T21:05:52.082Z,9.48
2023-11-02T21:08:19.335Z,9.51
2023-11-02T21:10:49.260Z,9.38
2023-11-02T21:13:18.915Z,9.46
2023-11-02T21:15:46.055Z,9.45
2023-11-02T21:18:13.238Z,9.21
2023-11-02T21:20:40.158Z,9.31
2023-11-02T21:23:07.202Z,9.36
2023-11-02T21:25:34.594Z,9.38
2023-11-02T21:28:02.321Z,9.24
2023-11-02T21:30:29.594Z,9.19
2023-11-02T21:32:58.586Z,9.20
2023-11-02T21:35:25.569Z,9.30
2023-11-02T21:37:54.080Z,9.37
2023-11-02T21:40:21.654Z,9.33
2023-11-02T21:42:49.011Z,9.26
2023-11-02T21:45:18.055Z,9.44
2023-11-02T21:47:45.840Z,9.51
2023-11-02T21:50:13.129Z,9.56
2023-11-02T21:52:50.924Z,9.57
2023-11-02T21:55:18.727Z,9.52
2023-11-02T21:57:48.808Z,9.60
2023-11-02T22:00:17.942Z,9.43
2023-11-02T22:02:45.209Z,9.42
2023-11-02T22:05:12.411Z,9.42
2023-11-02T22:07:39.124Z,9.44
2023-11-02T22:10:06.924Z,9.41
2023-11-02T22:12:34.160Z,9.31
2023-11-02T22:15:02.488Z,9.15
2023-11-02T22:17:29.790Z,9.27
2023-11-02T22:19:56.955Z,9.39
2023-11-02T22:22:25.964Z,9.46
2023-11-02T22:24:52.685Z,9.50
2023-11-02T22:27:19.505Z,9.48
2023-11-02T22:29:46.296Z,9.49
2023-11-02T22:32:15.280Z,9.37
2023-11-02T22:34:42.371Z,9.44
2023-11-02T22:37:10.265Z,9.62
2023-11-02T22:39:38.170Z,9.60
2023-11-02T22:42:05.360Z,9.50
2023-11-02T22:44:33.378Z,9.60
2023-11-02T22:47:00.153Z,9.55
2023-11-02T22:49:26.894Z,9.62
2023-11-02T22:51:54.595Z,9.46
2023-11-02T22:54:22.547Z,9.59
2023-11-02T22:56:49.744Z,9.61
2023-11-02T22:59:16.487Z,9.57
2023-11-02T23:01:43.339Z,9.79
2023-11-02T23:04:11.143Z,10.07
2023-11-02T23:06:38.365Z,9.95
2023-11-02T23:09:05.289Z,9.84
2023-11-02T23:11:32.942Z,9.55
2023-11-02T23:14:00.248Z,9.39
2023-11-02T23:16:28.384Z,9.47
2023-11-02T23:18:55.660Z,9.35
2023-11-02T23:21:23.244Z,9.39
2023-11-02T23:23:50.072Z,9.14
2023-11-02T23:26:19.385Z,9.36
2023-11-02T23:28:55.673Z,9.39
2023-11-02T23:31:29.542Z,9.42
2023-11-02T23:33:56.867Z,9.39
2023-11-02T23:36:28.443Z,9.41
2023-11-02T23:38:56.695Z,9.42
2023-11-02T23:41:33.756Z,9.51
2023-11-02T23:44:00.447Z,9.54
2023-11-02T23:46:27.143Z,9.13
2023-11-02T23:48:54.092Z,9.32
2023-11-02T23:51:24.914Z,9.36
2023-11-02T23:53:51.649Z,9.43
2023-11-02T23:56:18.297Z,9.48
2023-11-02T23:58:45.076Z,9.21
